Terminal Aerodrome Forecast
Issued by NWS Wilmington, OH

Current Version | Previous Version | Graphics & Text | Print | Product List | Glossary On
Versions: 1 2 3 4 5 6 7 8 9 10 11 12 13 14 15 16 17 18 19 20 21 22
000
FTUS41 KILN 221550 AAD
TAFILN
TAF AMD
KILN 221550Z 2216/2312 24011KT P6SM VCTS SCT040CB BKN200
      TEMPO 2216/2218 30015G22KT 5SM -TSRA BR BKN025CB
     FM230100 26003KT P6SM SCT250=

USA.gov is the U.S. government's official web portal to all federal, state and local government web resources and services.